Time;durP1;ratioP1;P1;durP2;ratioP2;P2;SDS_P1;SDS_P2;PMS_P1;PMS_P2;Temp;Humidity;BMP_temperature;BMP_pressure;BME280_temperature;BME280_humidity;BME280_pressure;Samples;Min_cycle;Max_cycle;Signal;HPM_P1;HPM_P2
2021/01/18 00:01:32;;;;;;;30.88;17.05;;;1.90;64.20;;;;;;5032988;28;84665;-80
2021/01/18 00:03:58;;;;;;;30.83;16.48;;;1.80;64.30;;;;;;5037170;28;83851;-81
2021/01/18 00:06:23;;;;;;;29.60;16.38;;;1.90;64.40;;;;;;5062501;28;82290;-75
2021/01/18 00:08:49;;;;;;;32.00;16.60;;;1.90;64.50;;;;;;5043993;28;85271;-76
2021/01/18 00:11:17;;;;;;;36.97;17.35;;;1.90;64.40;;;;;;5046289;28;83946;-76
2021/01/18 00:13:47;;;;;;;46.47;17.75;;;1.90;64.40;;;;;;5045760;28;82419;-76
2021/01/18 00:16:17;;;;;;;35.13;17.88;;;1.90;64.40;;;;;;5045522;28;84413;-77
2021/01/18 00:18:43;;;;;;;36.60;19.10;;;1.90;64.40;;;;;;5064046;28;83681;-75
2021/01/18 00:21:09;;;;;;;34.95;16.80;;;1.90;64.30;;;;;;5029405;28;84360;-78
2021/01/18 00:23:39;;;;;;;32.83;18.58;;;1.90;64.40;;;;;;5063638;28;82381;-76
2021/01/18 00:26:06;;;;;;;36.08;18.30;;;1.90;64.50;;;;;;5064988;28;82179;-77
2021/01/18 00:31:17;;;;;;;30.23;16.80;;;1.90;64.80;;;;;;5004822;22;110933;-75
2021/01/18 00:33:43;;;;;;;32.40;16.23;;;1.90;64.80;;;;;;4999669;28;83579;-75
2021/01/18 00:36:09;;;;;;;35.13;17.40;;;1.90;64.60;;;;;;4986759;28;83070;-74
2021/01/18 00:38:35;;;;;;;29.00;15.88;;;1.80;64.50;;;;;;4982950;28;84847;-75
2021/01/18 00:41:03;;;;;;;29.00;16.25;;;1.70;64.50;;;;;;4980933;28;86083;-76
2021/01/18 00:43:30;;;;;;;34.40;16.45;;;1.60;64.50;;;;;;4982799;28;83826;-77
2021/01/18 00:45:57;;;;;;;29.92;15.93;;;1.60;64.60;;;;;;4992850;28;82543;-75
2021/01/18 00:48:23;;;;;;;31.42;15.90;;;1.60;64.60;;;;;;4976369;28;85534;-75
2021/01/18 00:50:48;;;;;;;30.42;15.55;;;1.60;64.60;;;;;;4979607;28;83428;-75
2021/01/18 00:53:14;;;;;;;26.95;15.10;;;1.50;64.60;;;;;;4978804;28;85835;-75
2021/01/18 00:55:40;;;;;;;30.88;16.73;;;1.50;64.60;;;;;;4995524;28;83279;-75
2021/01/18 00:58:11;;;;;;;25.52;15.10;;;1.50;64.70;;;;;;4985743;22;85261;-75
2021/01/18 01:00:39;;;;;;;28.25;15.80;;;1.50;64.80;;;;;;5010678;22;84917;-75
2021/01/18 01:03:05;;;;;;;28.38;15.88;;;1.40;64.80;;;;;;5001424;28;86686;-76
2021/01/18 01:05:31;;;;;;;30.85;15.65;;;1.50;64.80;;;;;;5001974;28;82819;-76
2021/01/18 01:07:59;;;;;;;31.85;15.85;;;1.40;64.70;;;;;;5002016;28;84146;-75
2021/01/18 01:10:32;;;;;;;28.48;15.82;;;1.40;64.80;;;;;;5002381;22;85044;-75
2021/01/18 01:13:05;;;;;;;29.48;15.32;;;1.40;64.90;;;;;;5015657;28;84059;-76
2021/01/18 01:15:32;;;;;;;32.78;16.52;;;1.30;65.00;;;;;;4993536;28;83252;-80
2021/01/18 01:17:58;;;;;;;27.92;14.55;;;1.30;65.20;;;;;;4994052;28;86215;-75
2021/01/18 01:20:25;;;;;;;29.52;15.52;;;1.20;65.30;;;;;;4997981;28;82867;-75
2021/01/18 01:22:52;;;;;;;33.00;16.95;;;1.30;65.40;;;;;;4996950;28;83600;-75
2021/01/18 01:25:20;;;;;;;26.92;15.45;;;1.20;65.30;;;;;;4997206;28;82613;-75
2021/01/18 01:27:46;;;;;;;30.85;16.40;;;1.30;65.30;;;;;;5016103;28;83275;-75
2021/01/18 01:30:14;;;;;;;27.05;16.33;;;1.30;65.20;;;;;;4997503;28;82301;-75
2021/01/18 01:32:42;;;;;;;29.65;16.38;;;1.30;65.40;;;;;;5016309;28;83705;-74
2021/01/18 01:35:09;;;;;;;30.05;16.70;;;1.20;65.60;;;;;;5003004;28;83172;-75
2021/01/18 01:37:35;;;;;;;27.90;16.85;;;1.10;65.80;;;;;;5017503;28;83086;-75
2021/01/18 01:40:02;;;;;;;33.30;15.68;;;1.10;65.90;;;;;;5035609;28;82372;-76
2021/01/18 01:42:28;;;;;;;33.08;17.35;;;1.10;65.80;;;;;;5015419;28;82460;-76
2021/01/18 01:44:54;;;;;;;31.52;15.65;;;1.10;65.80;;;;;;5031614;28;84253;-78
2021/01/18 01:47:34;;;;;;;27.55;14.95;;;1.10;66.00;;;;;;5016413;28;84740;-75
2021/01/18 01:50:03;;;;;;;29.00;15.20;;;1.20;66.10;;;;;;5016364;28;83346;-76
2021/01/18 01:52:30;;;;;;;29.70;15.85;;;1.20;65.90;;;;;;5034411;28;83922;-76
2021/01/18 01:55:01;;;;;;;31.92;17.92;;;1.20;65.80;;;;;;5016605;28;83310;-77
2021/01/18 01:57:29;;;;;;;29.85;16.17;;;1.30;65.70;;;;;;5035568;28;82506;-78
2021/01/18 01:59:59;;;;;;;31.10;16.65;;;1.30;65.50;;;;;;5010113;28;84283;-79
2021/01/18 02:02:25;;;;;;;30.35;15.82;;;1.20;65.40;;;;;;5029175;28;83274;-78
2021/01/18 02:04:51;;;;;;;28.42;15.30;;;1.10;65.40;;;;;;5011148;28;84415;-77
2021/01/18 02:07:25;;;;;;;30.13;17.52;;;1.00;65.40;;;;;;5015094;28;82518;-77
2021/01/18 02:09:53;;;;;;;30.23;15.60;;;1.00;65.70;;;;;;5037528;28;82482;-77
2021/01/18 02:12:19;;;;;;;33.70;16.88;;;0.90;65.80;;;;;;5041867;28;82376;-77
2021/01/18 02:15:11;;;;;;;30.38;15.82;;;0.90;65.80;;;;;;5020823;28;85016;-75
2021/01/18 02:18:04;;;;;;;31.38;16.48;;;1.00;65.80;;;;;;5014109;28;82738;-75
2021/01/18 02:21:08;;;;;;;32.40;17.33;;;1.00;65.80;;;;;;5022636;28;83382;-76
2021/01/18 02:23:35;;;;;;;30.20;15.80;;;1.00;65.80;;;;;;5043210;28;82643;-78
2021/01/18 02:26:13;;;;;;;34.00;17.17;;;0.90;65.90;;;;;;5023177;28;84107;-76
2021/01/18 02:28:53;;;;;;;32.95;17.73;;;1.00;65.90;;;;;;5026915;28;83485;-77
2021/01/18 02:31:53;;;;;;;30.33;15.88;;;0.90;65.90;;;;;;5044679;28;82291;-75
2021/01/18 02:34:41;;;;;;;28.13;15.48;;;0.90;65.90;;;;;;5015879;28;84029;-75
2021/01/18 02:37:17;;;;;;;30.95;16.35;;;0.90;65.90;;;;;;5034670;28;83015;-76
2021/01/18 02:40:06;;;;;;;32.35;17.00;;;0.90;65.90;;;;;;5017499;28;82422;-76
2021/01/18 02:42:48;;;;;;;34.60;16.20;;;0.90;65.80;;;;;;5011074;22;87645;-77
2021/01/18 02:45:17;;;;;;;29.15;16.42;;;0.80;65.90;;;;;;4974722;28;84616;-76
2021/01/18 02:47:45;;;;;;;28.98;15.80;;;0.70;66.20;;;;;;4974193;28;82930;-76
2021/01/18 02:50:12;;;;;;;31.00;15.98;;;0.60;66.20;;;;;;4974379;28;86083;-76
2021/01/18 02:52:44;;;;;;;26.55;15.18;;;0.50;66.40;;;;;;4975529;28;83138;-76
2021/01/18 02:55:13;;;;;;;24.17;13.20;;;0.50;66.50;;;;;;5030450;22;83409;-76
2021/01/18 02:57:43;;;;;;;30.38;14.77;;;0.40;66.50;;;;;;5100449;22;84785;-78
2021/01/18 03:00:15;;;;;;;29.30;15.02;;;0.40;66.70;;;;;;5004912;28;82338;-77
2021/01/18 03:02:47;;;;;;;29.23;16.08;;;0.40;66.90;;;;;;5022041;28;83402;-75
2021/01/18 03:05:38;;;;;;;28.15;15.55;;;0.40;66.90;;;;;;5004254;28;84070;-75
2021/01/18 03:08:18;;;;;;;26.73;15.37;;;0.40;67.00;;;;;;5009359;22;83108;-74
2021/01/18 03:10:56;;;;;;;28.17;14.80;;;0.40;66.80;;;;;;5018426;28;82495;-75
2021/01/18 03:13:53;;;;;;;34.72;16.45;;;0.30;67.10;;;;;;5001380;28;84502;-74
2021/01/18 03:16:25;;;;;;;33.83;15.17;;;0.30;67.20;;;;;;4991340;28;85232;-75
2021/01/18 03:18:53;;;;;;;27.63;13.80;;;0.20;67.40;;;;;;4998450;28;83308;-74
2021/01/18 03:21:19;;;;;;;26.33;14.57;;;0.20;67.50;;;;;;5018110;28;83096;-75
2021/01/18 03:23:46;;;;;;;30.55;15.80;;;0.30;67.50;;;;;;5000105;28;83063;-75
2021/01/18 03:26:13;;;;;;;25.07;14.30;;;0.30;67.40;;;;;;5017680;28;82416;-74
2021/01/18 03:28:39;;;;;;;27.05;13.85;;;0.40;67.30;;;;;;5018126;28;82262;-75
2021/01/18 03:31:05;;;;;;;32.85;15.70;;;0.40;67.30;;;;;;4999269;28;85900;-75
2021/01/18 03:33:31;;;;;;;30.77;14.90;;;0.40;67.20;;;;;;4998963;28;84690;-77
2021/01/18 03:35:57;;;;;;;28.13;14.70;;;0.40;67.20;;;;;;4998815;28;87106;-77
2021/01/18 03:38:24;;;;;;;29.67;15.60;;;0.50;67.10;;;;;;4998969;28;83992;-75
2021/01/18 03:40:51;;;;;;;26.52;15.90;;;0.50;67.10;;;;;;4995357;28;84292;-76
2021/01/18 03:43:19;;;;;;;30.77;14.68;;;0.50;67.00;;;;;;4992635;28;84825;-76
2021/01/18 03:45:46;;;;;;;25.48;14.02;;;0.50;66.90;;;;;;5017952;28;83300;-75
2021/01/18 03:48:13;;;;;;;27.42;15.13;;;0.50;67.00;;;;;;5017810;28;82562;-78
2021/01/18 03:50:40;;;;;;;26.05;14.82;;;0.40;67.00;;;;;;4997135;28;83577;-76
2021/01/18 03:53:07;;;;;;;29.23;15.27;;;0.40;67.00;;;;;;4996635;28;85703;-75
2021/01/18 03:55:33;;;;;;;26.48;14.75;;;0.40;67.00;;;;;;5016296;28;83735;-75
2021/01/18 03:57:59;;;;;;;26.58;14.48;;;0.40;66.90;;;;;;5000081;28;82686;-75
2021/01/18 04:00:28;;;;;;;26.98;14.52;;;0.50;66.80;;;;;;5015848;28;82441;-74
2021/01/18 04:02:54;;;;;;;26.67;13.15;;;0.40;66.80;;;;;;4997676;22;83378;-76
2021/01/18 04:05:21;;;;;;;28.63;15.00;;;0.40;66.70;;;;;;4973808;28;85320;-77
2021/01/18 04:07:48;;;;;;;32.83;16.15;;;0.40;66.80;;;;;;4993611;28;84397;-77
2021/01/18 04:10:17;;;;;;;30.13;15.60;;;0.40;66.80;;;;;;5017991;28;83739;-77
2021/01/18 04:12:45;;;;;;;32.08;15.77;;;0.40;66.90;;;;;;4995656;28;85704;-77
2021/01/18 04:15:13;;;;;;;27.98;15.55;;;0.40;66.90;;;;;;4996092;28;84699;-79
2021/01/18 04:17:50;;;;;;;30.08;15.60;;;0.40;66.70;;;;;;4997360;28;83315;-78
2021/01/18 04:20:17;;;;;;;26.65;14.93;;;0.40;66.70;;;;;;5010523;28;83618;-78
2021/01/18 04:22:50;;;;;;;31.60;15.48;;;0.30;66.60;;;;;;5015263;28;83105;-78
2021/01/18 04:25:17;;;;;;;28.77;15.45;;;0.30;66.70;;;;;;4998093;28;84524;-76
2021/01/18 04:27:57;;;;;;;30.67;15.88;;;0.20;66.60;;;;;;4998737;28;84362;-76
2021/01/18 04:30:25;;;;;;;26.08;13.68;;;0.20;66.80;;;;;;5015951;28;83831;-77
2021/01/18 04:32:59;;;;;;;28.00;13.98;;;0.10;66.80;;;;;;5015557;28;85308;-77
2021/01/18 04:35:27;;;;;;;26.42;13.95;;;0.10;66.90;;;;;;4995106;28;83829;-75
2021/01/18 04:37:56;;;;;;;29.20;14.98;;;0.10;66.90;;;;;;4993746;28;84939;-75
2021/01/18 04:40:23;;;;;;;27.95;14.23;;;0.10;67.00;;;;;;4993012;28;83814;-75
2021/01/18 04:42:49;;;;;;;30.77;14.73;;;0.10;67.10;;;;;;4994662;28;83540;-76
2021/01/18 04:45:20;;;;;;;28.73;14.02;;;0.10;67.00;;;;;;5015082;28;82294;-75
2021/01/18 04:47:48;;;;;;;32.72;15.02;;;0.10;67.10;;;;;;4995668;28;85670;-75
2021/01/18 04:50:19;;;;;;;28.63;13.70;;;0.10;67.10;;;;;;4997003;28;83287;-74
2021/01/18 04:52:45;;;;;;;27.27;15.07;;;0.10;67.20;;;;;;5013008;28;82856;-75
2021/01/18 04:55:52;;;;;;;25.40;13.98;;;0.20;67.20;;;;;;4994357;28;84490;-75
2021/01/18 04:58:19;;;;;;;24.73;13.35;;;0.20;67.20;;;;;;5014320;28;83360;-74
2021/01/18 05:00:50;;;;;;;29.08;13.75;;;0.00;67.40;;;;;;4998573;28;85138;-76
2021/01/18 05:03:26;;;;;;;25.00;12.77;;;0.00;67.60;;;;;;4998392;28;83166;-76
2021/01/18 05:05:51;;;;;;;23.83;12.90;;;0.00;67.70;;;;;;5023385;22;83832;-76
2021/01/18 05:08:58;;;;;;;24.50;13.32;;;0.00;67.90;;;;;;4997820;28;85525;-76
2021/01/18 05:11:24;;;;;;;26.30;13.73;;;0.00;68.10;;;;;;4998212;28;86833;-76
2021/01/18 05:13:50;;;;;;;34.10;15.47;;;0.00;68.10;;;;;;4998658;28;83272;-78
2021/01/18 05:16:16;;;;;;;29.77;14.97;;;0.00;68.30;;;;;;4996735;28;85943;-78
2021/01/18 05:18:41;;;;;;;28.30;13.55;;;0.00;68.20;;;;;;4994515;28;84177;-78
2021/01/18 05:21:09;;;;;;;24.63;14.48;;;-3276.70;68.30;;;;;;5010311;28;83575;-75
2021/01/18 05:23:42;;;;;;;30.42;14.30;;;0.00;68.40;;;;;;4992763;28;84713;-77
2021/01/18 05:26:19;;;;;;;29.00;13.48;;;0.00;68.50;;;;;;5010228;28;85542;-78
2021/01/18 05:28:46;;;;;;;23.87;14.03;;;0.00;68.50;;;;;;4992296;28;84811;-77
2021/01/18 05:31:37;;;;;;;26.45;15.18;;;0.00;68.30;;;;;;4998182;28;84857;-76
2021/01/18 05:34:04;;;;;;;23.95;14.20;;;0.00;68.40;;;;;;4992919;28;83132;-77
2021/01/18 05:36:42;;;;;;;25.83;13.10;;;0.00;68.50;;;;;;4993672;28;83950;-78
2021/01/18 05:39:19;;;;;;;30.30;15.18;;;0.00;68.40;;;;;;5012106;28;83053;-80
2021/01/18 05:41:54;;;;;;;28.20;13.88;;;0.10;68.30;;;;;;4994896;28;85804;-77
2021/01/18 05:44:31;;;;;;;26.87;14.57;;;0.00;68.20;;;;;;5015637;28;83476;-77
2021/01/18 05:47:05;;;;;;;30.20;16.27;;;0.00;68.30;;;;;;4981905;28;84889;-77
2021/01/18 05:49:41;;;;;;;28.60;15.98;;;0.00;68.20;;;;;;4996353;28;85879;-77
2021/01/18 05:52:22;;;;;;;25.90;13.23;;;0.00;68.20;;;;;;4998086;28;84976;-77
2021/01/18 05:54:47;;;;;;;27.90;14.03;;;0.00;68.00;;;;;;5013802;28;83638;-78
2021/01/18 05:57:15;;;;;;;27.00;15.20;;;0.00;68.00;;;;;;5013688;28;82467;-77
2021/01/18 05:59:42;;;;;;;32.43;16.20;;;-3276.70;68.00;;;;;;4993592;28;83373;-79
2021/01/18 06:02:09;;;;;;;30.88;16.17;;;-3276.70;68.00;;;;;;5009672;28;83572;-79
2021/01/18 06:04:37;;;;;;;30.23;14.52;;;-3276.70;68.10;;;;;;4995058;28;84238;-78
2021/01/18 06:07:04;;;;;;;27.55;15.07;;;-3276.60;68.10;;;;;;5006762;28;83330;-78
2021/01/18 06:09:44;;;;;;;33.20;14.60;;;-3276.60;68.20;;;;;;4991719;28;83480;-77
2021/01/18 06:12:28;;;;;;;26.15;13.57;;;-3276.60;68.30;;;;;;4992102;28;85308;-77
2021/01/18 06:15:13;;;;;;;26.63;12.98;;;-3276.60;68.30;;;;;;4992433;28;83272;-77
2021/01/18 06:17:48;;;;;;;23.80;12.65;;;-3276.60;68.40;;;;;;4993472;28;86571;-77
2021/01/18 06:20:28;;;;;;;29.80;14.97;;;-3276.60;68.30;;;;;;5011668;28;82570;-77
2021/01/18 06:22:58;;;;;;;24.87;13.33;;;-3276.70;68.30;;;;;;5011085;28;83744;-77
2021/01/18 06:25:25;;;;;;;22.40;12.43;;;-3276.60;68.20;;;;;;5012341;28;82387;-76
2021/01/18 06:27:53;;;;;;;32.30;12.53;;;-3276.60;68.20;;;;;;5019330;22;83496;-76
2021/01/18 06:30:26;;;;;;;25.93;13.27;;;-3276.60;68.30;;;;;;4995966;28;83710;-75
2021/01/18 06:32:54;;;;;;;25.17;12.10;;;-3276.70;68.30;;;;;;5009735;28;83073;-75
2021/01/18 06:35:31;;;;;;;28.03;13.37;;;-3276.60;68.30;;;;;;4991537;28;84985;-76
2021/01/18 06:40:48;;;;;;;28.80;14.40;;;-3276.60;68.50;;;;;;5036788;22;83470;-76
2021/01/18 06:43:22;;;;;;;32.37;15.33;;;-3276.60;68.60;;;;;;5026567;28;83973;-76
2021/01/18 06:45:48;;;;;;;31.25;16.27;;;-3276.60;68.50;;;;;;5009518;23;83820;-76
2021/01/18 06:48:13;;;;;;;35.20;15.13;;;-3276.60;68.40;;;;;;5019060;28;83972;-81
2021/01/18 06:50:40;;;;;;;34.07;15.77;;;-3276.60;68.40;;;;;;5022905;28;83548;-77
2021/01/18 06:53:23;;;;;;;30.53;14.10;;;-3276.50;68.40;;;;;;5022799;28;84920;-76
2021/01/18 06:56:20;;;;;;;30.17;14.93;;;-3276.50;68.40;;;;;;5016163;28;84954;-75
2021/01/18 06:59:04;;;;;;;33.92;14.77;;;-3276.50;68.40;;;;;;5018711;28;85812;-75
2021/01/18 07:01:30;;;;;;;33.15;15.27;;;-3276.40;68.50;;;;;;5022028;28;85993;-75
2021/01/18 07:04:08;;;;;;;31.10;13.53;;;-3276.50;68.40;;;;;;5021379;28;83166;-83
2021/01/18 07:06:39;;;;;;;26.23;13.13;;;-3276.50;68.30;;;;;;5020819;28;85800;-76
2021/01/18 07:09:08;;;;;;;27.58;12.90;;;-3276.50;68.30;;;;;;5017083;28;85120;-76
2021/01/18 07:11:34;;;;;;;27.87;13.17;;;-3276.50;68.30;;;;;;5027799;28;83108;-77
2021/01/18 07:14:04;;;;;;;29.53;14.50;;;-3276.50;68.30;;;;;;5003547;22;85740;-76
2021/01/18 07:16:31;;;;;;;30.40;14.97;;;-3276.60;68.30;;;;;;5009055;28;84058;-76
2021/01/18 07:18:59;;;;;;;24.60;12.93;;;-3276.60;68.20;;;;;;5014287;28;84996;-75
2021/01/18 07:21:41;;;;;;;25.57;13.77;;;-3276.60;68.10;;;;;;4990310;28;84108;-77
2021/01/18 07:24:14;;;;;;;28.17;14.70;;;-3276.60;68.10;;;;;;5005799;28;83643;-76
2021/01/18 07:26:56;;;;;;;28.80;14.33;;;-3276.50;68.20;;;;;;4994141;28;85309;-75
2021/01/18 07:29:24;;;;;;;30.20;14.27;;;-3276.40;68.40;;;;;;4993209;28;84240;-75
2021/01/18 07:31:55;;;;;;;29.47;14.27;;;-3276.40;68.50;;;;;;5008605;28;83342;-75
2021/01/18 07:34:24;;;;;;;30.83;13.97;;;-3276.40;68.50;;;;;;4989525;28;86571;-75
2021/01/18 07:36:51;;;;;;;25.67;13.43;;;-3276.40;68.50;;;;;;4993779;28;83579;-76
2021/01/18 07:39:32;;;;;;;28.77;14.67;;;-3276.50;68.50;;;;;;4994557;28;83649;-76
2021/01/18 07:41:59;;;;;;;25.00;12.50;;;-3276.50;68.50;;;;;;4990287;28;83946;-76
2021/01/18 07:44:33;;;;;;;33.97;14.97;;;-3276.50;68.40;;;;;;4993502;28;87047;-77
2021/01/18 07:47:07;;;;;;;30.73;15.27;;;-3276.50;68.40;;;;;;4994718;28;84324;-74
2021/01/18 07:49:35;;;;;;;31.17;13.87;;;-3276.50;68.40;;;;;;5013812;28;83799;-74
2021/01/18 07:52:19;;;;;;;30.40;13.97;;;-3276.60;68.30;;;;;;5014265;28;83957;-75
2021/01/18 07:54:46;;;;;;;28.13;12.97;;;-3276.60;68.20;;;;;;4996136;28;86667;-77
2021/01/18 07:57:36;;;;;;;27.37;13.93;;;-3276.50;68.30;;;;;;5009890;28;83536;-75
2021/01/18 08:00:18;;;;;;;25.47;13.57;;;-3276.60;68.20;;;;;;4987824;28;84734;-77
2021/01/18 08:02:48;;;;;;;25.70;14.07;;;-3276.60;68.10;;;;;;5007907;28;83977;-73
2021/01/18 08:05:25;;;;;;;27.10;12.87;;;-3276.60;68.00;;;;;;5014653;28;85582;-74
2021/01/18 08:08:07;;;;;;;28.00;14.20;;;-3276.60;67.90;;;;;;4993472;28;85891;-74
2021/01/18 08:11:07;;;;;;;35.10;14.73;;;-3276.70;67.90;;;;;;5009913;28;83434;-73
2021/01/18 08:13:53;;;;;;;29.63;14.47;;;-3276.70;67.90;;;;;;5011452;28;82801;-74
2021/01/18 08:16:26;;;;;;;38.23;17.73;;;-3276.60;68.00;;;;;;4987483;28;84701;-68
2021/01/18 08:18:59;;;;;;;27.95;13.88;;;-3276.70;68.00;;;;;;4993107;28;83811;-70
2021/01/18 08:21:34;;;;;;;35.95;14.38;;;0.00;67.90;;;;;;4993316;28;84620;-66
2021/01/18 08:24:08;;;;;;;22.63;12.97;;;0.00;67.80;;;;;;4975072;28;84085;-66
2021/01/18 08:26:54;;;;;;;27.03;14.37;;;0.00;67.60;;;;;;4973586;28;84373;-73
2021/01/18 08:29:45;;;;;;;38.03;14.90;;;0.10;67.50;;;;;;4990709;28;84062;-72
2021/01/18 08:32:23;;;;;;;34.57;15.03;;;0.20;67.30;;;;;;4990495;28;85439;-70
2021/01/18 08:34:58;;;;;;;30.27;14.80;;;0.30;67.00;;;;;;4991234;28;83995;-69
2021/01/18 08:37:25;;;;;;;29.33;14.17;;;0.40;66.80;;;;;;4990918;28;83634;-71
2021/01/18 08:39:56;;;;;;;30.13;14.17;;;0.40;66.50;;;;;;4992087;28;83629;-69
2021/01/18 08:42:27;;;;;;;34.75;15.77;;;0.40;66.50;;;;;;4987833;28;83861;-68
2021/01/18 08:45:20;;;;;;;31.60;14.83;;;0.50;66.70;;;;;;4990940;28;84045;-62
2021/01/18 08:48:00;;;;;;;26.27;13.45;;;0.80;66.20;;;;;;4973168;28;83926;-70
2021/01/18 08:50:27;;;;;;;26.35;12.77;;;0.90;65.60;;;;;;4992198;28;84289;-66
2021/01/18 08:52:57;;;;;;;28.17;11.20;;;1.00;65.30;;;;;;4974269;28;85043;-66
2021/01/18 08:55:28;;;;;;;25.80;12.90;;;1.10;65.00;;;;;;4991788;28;84655;-67
2021/01/18 08:58:02;;;;;;;21.50;11.60;;;1.20;64.90;;;;;;4992352;28;83911;-68
2021/01/18 09:00:47;;;;;;;21.67;10.25;;;1.40;64.60;;;;;;4992396;28;84426;-65
2021/01/18 09:03:18;;;;;;;37.35;13.70;;;1.40;64.30;;;;;;4973546;28;86576;-72
2021/01/18 09:05:47;;;;;;;23.45;11.27;;;1.60;64.30;;;;;;4990503;28;84311;-68
2021/01/18 09:08:15;;;;;;;30.80;12.77;;;1.70;64.10;;;;;;4992204;28;83771;-68
2021/01/18 09:11:01;;;;;;;27.38;11.85;;;1.70;64.10;;;;;;4973686;28;87315;-71
2021/01/18 09:13:32;;;;;;;25.40;12.90;;;1.80;64.30;;;;;;4987734;28;83248;-72
2021/01/18 09:16:00;;;;;;;26.50;12.88;;;1.90;63.90;;;;;;4990862;28;83432;-72
2021/01/18 09:18:26;;;;;;;30.75;13.57;;;2.00;63.70;;;;;;4991043;28;84500;-70
2021/01/18 09:20:57;;;;;;;27.83;13.30;;;2.20;63.50;;;;;;4973576;28;84127;-67
2021/01/18 09:23:25;;;;;;;26.73;12.15;;;2.50;63.00;;;;;;4991735;28;84233;-70
2021/01/18 09:26:04;;;;;;;25.67;12.73;;;2.80;62.60;;;;;;4973335;28;85157;-72
2021/01/18 09:28:31;;;;;;;23.90;11.98;;;3.10;61.80;;;;;;4991568;28;84066;-70
2021/01/18 09:31:05;;;;;;;23.65;12.77;;;3.40;61.30;;;;;;4972917;28;85097;-71
2021/01/18 09:33:32;;;;;;;25.27;11.13;;;3.50;61.00;;;;;;4971976;28;85683;-67
2021/01/18 09:35:57;;;;;;;18.98;11.00;;;3.50;60.60;;;;;;4988910;28;83616;-66
2021/01/18 09:38:23;;;;;;;23.33;12.13;;;3.50;60.80;;;;;;4972064;28;84449;-74
2021/01/18 09:40:49;;;;;;;24.67;12.15;;;3.80;60.80;;;;;;4971648;28;86226;-70
2021/01/18 09:43:20;;;;;;;30.85;12.95;;;4.30;60.10;;;;;;4971834;28;86048;-70
2021/01/18 09:45:54;;;;;;;27.27;12.70;;;4.80;58.20;;;;;;4991535;28;84085;-73
2021/01/18 09:48:24;;;;;;;24.10;12.43;;;5.20;57.10;;;;;;4991574;28;84661;-73
2021/01/18 09:51:03;;;;;;;26.08;12.30;;;5.50;56.50;;;;;;4990853;28;84536;-69
2021/01/18 09:53:30;;;;;;;25.25;12.85;;;5.90;55.60;;;;;;4971900;28;85240;-68
2021/01/18 09:56:00;;;;;;;24.92;11.95;;;6.40;54.40;;;;;;4990898;28;84144;-66
2021/01/18 09:58:50;;;;;;;29.92;14.82;;;7.10;52.40;;;;;;4990160;28;84105;-75
2021/01/18 10:01:17;;;;;;;31.17;13.80;;;7.70;51.00;;;;;;4972564;28;85864;-72
2021/01/18 10:03:53;;;;;;;26.27;14.00;;;7.90;50.40;;;;;;4973339;28;85260;-73
2021/01/18 10:06:31;;;;;;;28.63;13.63;;;8.30;50.00;;;;;;4990480;28;83788;-73
2021/01/18 10:09:12;;;;;;;27.88;14.43;;;8.80;48.70;;;;;;4973020;28;84032;-69
2021/01/18 10:11:50;;;;;;;27.98;13.75;;;9.10;47.70;;;;;;4991436;28;84103;-65
2021/01/18 10:14:18;;;;;;;27.15;14.77;;;9.20;48.10;;;;;;4991301;28;85041;-67
2021/01/18 10:17:17;;;;;;;26.98;14.13;;;9.70;47.00;;;;;;4975242;28;86451;-71
2021/01/18 10:19:43;;;;;;;27.90;14.15;;;10.20;46.00;;;;;;4940881;28;84939;-65
2021/01/18 10:22:19;;;;;;;24.38;13.63;;;10.50;45.10;;;;;;4972240;28;84012;-67
2021/01/18 10:24:56;;;;;;;28.40;15.18;;;11.00;43.60;;;;;;4991397;28;84331;-63
2021/01/18 10:27:29;;;;;;;26.83;14.07;;;11.40;42.50;;;;;;4990694;28;84415;-64
2021/01/18 10:30:15;;;;;;;27.10;15.63;;;11.80;42.00;;;;;;4990293;28;84262;-63
2021/01/18 10:32:44;;;;;;;27.95;16.48;;;12.70;41.20;;;;;;4988410;28;83887;-63
2021/01/18 10:35:31;;;;;;;25.88;16.58;;;13.60;39.40;;;;;;4955434;28;84154;-65
2021/01/18 10:38:14;;;;;;;35.30;17.40;;;13.70;39.10;;;;;;4972480;28;83704;-71
2021/01/18 10:40:41;;;;;;;35.30;17.08;;;13.90;39.00;;;;;;4970711;28;83484;-64
2021/01/18 10:43:10;;;;;;;34.28;18.25;;;14.80;37.50;;;;;;4989539;28;83698;-62
2021/01/18 10:45:41;;;;;;;27.42;16.35;;;15.40;36.70;;;;;;4973321;28;85283;-66
2021/01/18 10:48:08;;;;;;;42.25;19.52;;;16.10;35.20;;;;;;4972596;28;84579;-63
2021/01/18 10:50:34;;;;;;;29.80;18.30;;;16.90;34.10;;;;;;4990936;28;83707;-63
2021/01/18 10:53:07;;;;;;;27.90;17.00;;;17.50;33.00;;;;;;4991071;28;84110;-63
2021/01/18 10:55:34;;;;;;;26.17;16.02;;;18.20;31.90;;;;;;4991044;28;84492;-70
2021/01/18 10:58:00;;;;;;;34.35;18.23;;;18.70;31.30;;;;;;4990633;28;83773;-63
2021/01/18 11:00:27;;;;;;;29.05;15.77;;;19.00;31.20;;;;;;4971707;28;83861;-65
2021/01/18 11:02:57;;;;;;;26.45;14.70;;;19.80;30.20;;;;;;4972129;28;85040;-66
2021/01/18 11:05:41;;;;;;;23.80;13.90;;;20.50;29.10;;;;;;4971663;28;84666;-64
2021/01/18 11:08:09;;;;;;;21.40;13.13;;;20.40;29.20;;;;;;4990703;28;84445;-64
2021/01/18 11:10:43;;;;;;;22.27;13.80;;;20.00;29.70;;;;;;4972219;28;83823;-64
2021/01/18 11:13:16;;;;;;;21.90;14.82;;;19.90;29.90;;;;;;4991253;28;83708;-65
2021/01/18 11:15:44;;;;;;;19.70;14.07;;;20.20;29.60;;;;;;4989969;28;83998;-63
2021/01/18 11:18:11;;;;;;;20.98;13.30;;;21.30;28.50;;;;;;4990173;28;84641;-64
2021/01/18 11:20:39;;;;;;;22.40;12.30;;;22.00;27.60;;;;;;4992949;28;84149;-65
2021/01/18 11:23:11;;;;;;;20.30;11.68;;;22.90;26.60;;;;;;4993228;28;83966;-67
2021/01/18 11:25:37;;;;;;;21.13;12.98;;;23.90;25.70;;;;;;4973553;28;85357;-64
2021/01/18 11:28:15;;;;;;;27.10;12.18;;;24.70;25.00;;;;;;4973571;28;84230;-64
2021/01/18 11:30:41;;;;;;;20.58;11.32;;;25.40;24.80;;;;;;4990450;28;83978;-66
2021/01/18 11:33:09;;;;;;;18.25;12.43;;;25.90;24.00;;;;;;4992572;28;84064;-64
2021/01/18 11:35:36;;;;;;;18.75;11.65;;;26.00;23.90;;;;;;4992032;28;83799;-72
2021/01/18 11:38:02;;;;;;;26.88;13.55;;;26.10;23.70;;;;;;4974449;28;83341;-64
2021/01/18 11:40:27;;;;;;;17.67;11.25;;;25.80;24.30;;;;;;4970157;28;85343;-71
2021/01/18 11:42:57;;;;;;;14.82;9.98;;;25.10;25.00;;;;;;4970627;28;84581;-64
2021/01/18 11:45:23;;;;;;;20.50;10.80;;;25.30;24.80;;;;;;4973700;28;85870;-63
2021/01/18 11:47:48;;;;;;;18.88;10.27;;;26.50;23.80;;;;;;4974009;28;83923;-66
2021/01/18 11:50:14;;;;;;;11.52;8.73;;;27.70;22.50;;;;;;4992112;28;85033;-66
2021/01/18 11:52:48;;;;;;;10.55;5.88;;;27.60;22.60;;;;;;4994538;28;81564;-68
2021/01/18 11:55:15;;;;;;;12.57;7.22;;;26.80;23.50;;;;;;4994510;28;82280;-66
2021/01/18 11:57:46;;;;;;;11.65;5.90;;;26.30;24.10;;;;;;4975421;28;82739;-67
2021/01/18 12:00:14;;;;;;;10.90;7.05;;;26.40;24.00;;;;;;4974621;28;81264;-64
2021/01/18 12:02:40;;;;;;;8.65;6.55;;;26.60;23.70;;;;;;4993782;28;81944;-66
2021/01/18 12:05:07;;;;;;;15.15;6.45;;;27.00;23.60;;;;;;4995138;28;81248;-66
2021/01/18 12:07:33;;;;;;;14.15;5.88;;;27.60;22.80;;;;;;4992956;28;82601;-65
2021/01/18 12:09:59;;;;;;;12.85;6.13;;;27.60;22.90;;;;;;4975219;28;81802;-64
2021/01/18 12:12:25;;;;;;;10.98;5.88;;;26.90;23.60;;;;;;4991725;28;81346;-65
2021/01/18 12:14:51;;;;;;;10.43;5.65;;;27.40;23.20;;;;;;4993869;28;80385;-64
2021/01/18 12:17:17;;;;;;;16.02;6.25;;;27.90;22.80;;;;;;4993428;28;81149;-64
2021/01/18 12:19:44;;;;;;;10.80;6.43;;;29.10;21.90;;;;;;4975301;28;83604;-67
2021/01/18 12:22:10;;;;;;;13.27;7.07;;;30.00;20.90;;;;;;4975451;28;82508;-62
2021/01/18 12:24:36;;;;;;;12.98;7.15;;;30.70;20.20;;;;;;4993577;28;83073;-67
2021/01/18 12:27:02;;;;;;;11.18;6.60;;;30.80;20.00;;;;;;4992197;28;81641;-64
2021/01/18 12:29:27;;;;;;;12.95;6.70;;;29.70;20.90;;;;;;4993012;28;81483;-62
2021/01/18 12:31:54;;;;;;;16.15;7.38;;;28.00;22.40;;;;;;4991308;28;81720;-65
2021/01/18 12:34:20;;;;;;;13.68;7.10;;;26.30;24.10;;;;;;4991144;28;80513;-68
2021/01/18 12:36:54;;;;;;;15.25;6.80;;;25.50;25.00;;;;;;4991797;28;81873;-64
2021/01/18 12:39:20;;;;;;;15.02;8.43;;;25.40;24.90;;;;;;4992933;28;81832;-67
2021/01/18 12:41:46;;;;;;;15.27;8.05;;;25.70;24.70;;;;;;4993966;28;81283;-68
2021/01/18 12:44:11;;;;;;;16.80;7.88;;;26.20;24.10;;;;;;4996610;28;81073;-65
2021/01/18 12:46:37;;;;;;;16.45;7.07;;;26.90;23.70;;;;;;4992561;28;81504;-65
2021/01/18 12:49:03;;;;;;;11.07;6.80;;;28.50;22.40;;;;;;4975455;28;82281;-65
2021/01/18 12:51:29;;;;;;;12.60;7.03;;;29.60;21.10;;;;;;4993666;28;81605;-70
2021/01/18 12:53:55;;;;;;;14.35;7.45;;;29.20;21.40;;;;;;4975584;28;82028;-68
2021/01/18 12:56:24;;;;;;;10.50;5.80;;;28.50;22.30;;;;;;4975402;28;82456;-65